Sheldon, IA (51201)

3:59 AM CDT on October 21, 2014 (GMT -0500)
East Sheldon | Change Station
CLOSE
Current Station
Personal Weather Station
Location: Sheldon, IA
Elevation: 1430 ft
Nearby Weather Stations

Elev 1430 ft 43.18 °N, 95.82 °W | Updated 2 minutes ago

Clear
Clear
39.9 °F
Feels Like 40 °F
N
0.0
Wind Variable Wind from South

Today
High -- | Low -- °F
--% Chance of Precip.
Yesterday
High -- | Low -- °F
Precip. -- in
7:44 AM 6:30 PM
Waning Crescent, 6% visible
Pressure 30.08 in
Visibility 10.0 miles
Clouds Clear
Windchill 40 °F
Dew Point 38 °F
Humidity 92%
Rainfall 0.04 in
Snow Depth Not available.
UV 0 out of 12
Pollen 1.70 out of 12
Air Quality Not available.
Flu Activity Sporadic
METAR KSHL 210835Z AUTO 00000KT 10SM CLR 01/00 A3008 RMK AO2

More Conditions Fewer Conditions

Pressure 30.08 in
Visibility 10.0 miles
Clouds Clear
Windchill 40 °F
Dew Point 38 °F
Humidity 92%
Rainfall 0.04 in
Snow Depth Not available.
UV 0 out of 12
Pollen 1.70 out of 12
Air Quality Not available.
Flu Activity Sporadic
METAR KSHL 210835Z AUTO 00000KT 10SM CLR 01/00 A3008 RMK AO2

More Conditions Fewer Conditions

10-Day Weather Forecast

Almanac

Astronomy

Oct. 21, 2014 Rise Set
Actual Time 7:44 AM CDT 6:30 PM CDT
Civil Twilight 7:15 AM CDT 6:59 PM CDT
Nautical Twilight 6:42 AM CDT 7:32 PM CDT
Astronomical Twilight 6:09 AM CDT 8:05 PM CDT
Moon 5:26 AM CDT 5:28 PM CDT
Length of Visible Light 11h 44m
Length of Day
10h 46m
Tomorrow will be 2m 47s shorter.
Waning Crescent, 6% of the Moon is Illuminated
Today
Waning Crescent
Oct 23
New
Oct 30
First Quarter
Nov 6
Full
Nov 14
Last Quarter

Today's Extremes

State Highs State Lows

Community

WunderPhotos

Upload Photos

1,763,619 photos uploaded!

Nearby

Snow Depth

Station Depth Elevation
No new snow has been reported.

Earthquake Activity

City Distance Mag. Time & Date
No recent earthquake activity has been reported nearby.
Minimum magnitude displayed is 2.5.

Coastal Water Temperatures

Place Temperature
No Stations Reporting

Nearby Weather Stations